Terminal Aerodrome Forecast
Issued by NWS

Home | Current Version | Previous Version | Text Only | Print | Product List | Glossary On
Versions: 1 2 3 4 5 6 7 8 9 10 11 12 13 14 15 16 17 18 19 20 21 22
642
FTUS43 KDLH 231730
TAFBRD
TAF
KBRD 231730Z 2318/2418 29006KT P6SM OVC006
      TEMPO 2318/2319 SCT010 BKN100
     FM232100 35005KT P6SM -SHRA SCT010 OVC025
     FM240100 04005KT 4SM -SHRA BR VCTS SCT010 OVC020CB
     FM240600 09004KT 4SM BR SCT007 OVC010
     FM240900 15004KT 4SM BR SCT007 OVC010 WS020/21035KT
     FM241400 18010KT P6SM SCT250=

USA.gov is the U.S. government's official web portal to all federal, state and local government web resources and services.